createdAt,value
2022-10-21T00:00:17.363Z,28.84
2022-10-21T00:01:17.373Z,28.78
2022-10-21T00:02:17.342Z,29.54
2022-10-21T00:03:17.324Z,29.16
2022-10-21T00:04:17.317Z,29.70
2022-10-21T00:05:17.301Z,29.21
2022-10-21T00:06:17.284Z,28.84
2022-10-21T00:07:17.273Z,29.21
2022-10-21T00:08:17.267Z,29.11
2022-10-21T00:09:17.250Z,29.54
2022-10-21T00:10:17.237Z,29.21
2022-10-21T00:11:17.217Z,29.16
2022-10-21T00:12:17.213Z,29.59
2022-10-21T00:13:17.194Z,29.59
2022-10-21T00:14:17.182Z,28.89
2022-10-21T00:15:17.174Z,28.84
2022-10-21T00:16:17.153Z,28.78
2022-10-21T00:17:17.166Z,29.16
2022-10-21T00:18:17.131Z,28.78
2022-10-21T00:19:17.121Z,29.65
2022-10-21T00:20:17.159Z,28.73
2022-10-21T00:21:17.090Z,29.16
2022-10-21T00:22:17.078Z,28.73
2022-10-21T00:23:17.071Z,28.78
2022-10-21T00:24:17.051Z,29.16
2022-10-21T00:25:17.032Z,28.73
2022-10-21T00:26:17.026Z,28.73
2022-10-21T00:27:17.010Z,28.78
2022-10-21T00:28:17.003Z,28.84
2022-10-21T00:29:17.052Z,28.84
2022-10-21T00:30:16.975Z,29.27
2022-10-21T00:31:16.958Z,28.84
2022-10-21T00:32:16.947Z,29.65
2022-10-21T00:33:16.959Z,29.21
2022-10-21T00:34:16.920Z,28.78
2022-10-21T00:35:16.907Z,28.73
2022-10-21T00:36:16.895Z,29.21
2022-10-21T00:37:16.878Z,29.21
2022-10-21T00:38:16.914Z,28.78
2022-10-21T00:39:16.852Z,29.59
2022-10-21T00:40:16.843Z,29.27
2022-10-21T00:41:16.830Z,29.27
2022-10-21T00:42:16.823Z,28.73
2022-10-21T00:43:16.809Z,28.78
2022-10-21T00:44:16.791Z,29.21
2022-10-21T00:45:16.786Z,28.78
2022-10-21T00:46:16.763Z,29.21
2022-10-21T00:47:16.750Z,29.21
2022-10-21T00:48:16.741Z,29.16
2022-10-21T00:49:16.747Z,29.21
2022-10-21T00:50:16.708Z,29.27
2022-10-21T00:51:16.696Z,29.27
2022-10-21T00:52:16.686Z,29.16
2022-10-21T00:53:16.672Z,29.54
2022-10-21T00:54:16.660Z,28.73
2022-10-21T00:55:16.644Z,28.73
2022-10-21T00:56:16.895Z,28.73
2022-10-21T00:57:16.630Z,29.21
2022-10-21T00:58:16.606Z,28.73
2022-10-21T00:59:16.595Z,28.84
2022-10-21T01:00:16.582Z,28.78
2022-10-21T01:01:19.286Z,28.78
2022-10-21T01:02:16.558Z,28.78
2022-10-21T01:03:16.545Z,29.11
2022-10-21T01:04:16.525Z,28.78
2022-10-21T01:05:16.544Z,28.78
2022-10-21T01:06:16.509Z,28.73
2022-10-21T01:07:16.487Z,29.16
2022-10-21T01:08:16.474Z,29.27
2022-10-21T01:09:16.625Z,29.48
2022-10-21T01:10:16.447Z,29.16
2022-10-21T01:11:16.431Z,29.21
2022-10-21T01:12:16.422Z,29.16
2022-10-21T01:13:16.409Z,29.11
2022-10-21T01:14:16.396Z,29.21
2022-10-21T01:15:16.388Z,29.16
2022-10-21T01:16:16.371Z,29.16
2022-10-21T01:17:26.332Z,28.84
2022-10-21T01:18:17.383Z,29.21
2022-10-21T01:19:16.328Z,28.89
2022-10-21T01:20:16.314Z,28.84
2022-10-21T01:21:16.328Z,28.73
2022-10-21T01:22:16.294Z,29.21
2022-10-21T01:23:16.277Z,28.78
2022-10-21T01:24:16.262Z,28.78
2022-10-21T01:25:16.253Z,28.73
2022-10-21T01:26:16.239Z,28.78
2022-10-21T01:27:16.232Z,28.78
2022-10-21T01:28:16.218Z,29.16
2022-10-21T01:29:16.204Z,28.84
2022-10-21T01:30:16.187Z,29.59
2022-10-21T01:31:16.173Z,29.54
2022-10-21T01:32:16.163Z,29.21
2022-10-21T01:33:16.154Z,29.11
2022-10-21T01:34:16.137Z,29.16
2022-10-21T01:35:16.124Z,29.11
2022-10-21T01:36:16.118Z,29.70
2022-10-21T01:37:16.122Z,29.16
2022-10-21T01:38:16.084Z,29.16
2022-10-21T01:39:16.071Z,28.94
2022-10-21T01:40:16.061Z,29.21
2022-10-21T01:41:16.045Z,28.73
2022-10-21T01:42:16.035Z,29.21
2022-10-21T01:43:16.023Z,29.11
2022-10-21T01:44:16.014Z,28.89
2022-10-21T01:45:15.995Z,28.73
2022-10-21T01:46:15.983Z,29.16
2022-10-21T01:47:15.974Z,28.78
2022-10-21T01:48:15.954Z,28.84
2022-10-21T01:49:15.958Z,29.21
2022-10-21T01:50:15.929Z,29.21
2022-10-21T01:51:15.976Z,29.54
2022-10-21T01:52:15.908Z,28.89
2022-10-21T01:53:15.912Z,29.16
2022-10-21T01:54:15.878Z,29.27
2022-10-21T01:55:15.865Z,29.16
2022-10-21T01:56:15.848Z,28.19
2022-10-21T01:57:15.847Z,28.73
2022-10-21T01:58:15.822Z,28.78
2022-10-21T01:59:15.815Z,28.78
2022-10-21T02:00:15.848Z,29.16
2022-10-21T02:01:15.851Z,29.21
2022-10-21T02:02:15.779Z,28.78
2022-10-21T02:03:15.762Z,29.21
2022-10-21T02:04:15.754Z,28.73
2022-10-21T02:05:15.733Z,29.11
2022-10-21T02:06:15.724Z,28.78
2022-10-21T02:07:15.707Z,28.89
2022-10-21T02:08:15.695Z,28.73
2022-10-21T02:09:15.778Z,28.67
2022-10-21T02:10:15.674Z,28.89
2022-10-21T02:11:15.662Z,28.84
2022-10-21T02:12:15.647Z,28.84
2022-10-21T02:13:15.627Z,28.73
2022-10-21T02:14:15.616Z,28.89
2022-10-21T02:15:15.601Z,28.73
2022-10-21T02:16:15.590Z,28.84
2022-10-21T02:17:15.577Z,29.21
2022-10-21T02:18:15.566Z,29.21
2022-10-21T02:19:15.549Z,28.78
2022-10-21T02:20:15.538Z,28.73
2022-10-21T02:21:15.523Z,28.73
2022-10-21T02:22:15.510Z,29.16
2022-10-21T02:23:15.501Z,29.21
2022-10-21T02:24:15.485Z,29.59
2022-10-21T02:25:15.498Z,28.78
2022-10-21T02:26:15.460Z,28.73
2022-10-21T02:27:15.450Z,29.11
2022-10-21T02:28:15.433Z,28.73
2022-10-21T02:29:15.423Z,28.73
2022-10-21T02:30:15.406Z,28.78
2022-10-21T02:31:15.403Z,28.73
2022-10-21T02:32:15.379Z,29.27
2022-10-21T02:33:15.370Z,29.11
2022-10-21T02:34:15.352Z,28.89
2022-10-21T02:35:15.344Z,28.84
2022-10-21T02:36:15.330Z,28.78
2022-10-21T02:37:15.325Z,28.73
2022-10-21T02:38:15.304Z,28.78
2022-10-21T02:39:15.289Z,28.78
2022-10-21T02:40:15.277Z,29.21
2022-10-21T02:41:15.291Z,29.21
2022-10-21T02:42:15.247Z,28.84
2022-10-21T02:43:15.242Z,28.78
2022-10-21T02:44:15.225Z,29.32
2022-10-21T02:45:15.214Z,29.16
2022-10-21T02:46:15.198Z,28.84
2022-10-21T02:47:15.195Z,29.05
2022-10-21T02:48:15.173Z,28.78
2022-10-21T02:49:15.164Z,29.21
2022-10-21T02:50:15.152Z,28.78
2022-10-21T02:51:15.136Z,28.78
2022-10-21T02:52:15.122Z,29.16
2022-10-21T02:53:15.109Z,29.27
2022-10-21T02:54:15.098Z,29.11
2022-10-21T02:55:15.079Z,28.73
2022-10-21T02:56:15.067Z,28.89
2022-10-21T02:57:15.084Z,28.67
2022-10-21T02:58:15.041Z,29.11
2022-10-21T02:59:15.047Z,28.73
2022-10-21T03:00:15.015Z,29.54
2022-10-21T03:01:15.076Z,28.73
2022-10-21T03:02:14.991Z,28.78
2022-10-21T03:03:14.977Z,29.11
2022-10-21T03:04:14.967Z,28.84
2022-10-21T03:05:14.949Z,28.73
2022-10-21T03:06:14.940Z,28.84
2022-10-21T03:07:14.923Z,28.94
2022-10-21T03:08:14.911Z,28.30
2022-10-21T03:09:14.909Z,29.54
2022-10-21T03:10:14.884Z,29.27
2022-10-21T03:11:14.870Z,29.21
2022-10-21T03:12:14.860Z,28.84
2022-10-21T03:13:14.870Z,29.16
2022-10-21T03:14:14.833Z,29.21
2022-10-21T03:15:14.818Z,28.73
2022-10-21T03:16:14.857Z,28.78
2022-10-21T03:17:14.796Z,28.78
2022-10-21T03:18:14.781Z,29.16
2022-10-21T03:19:14.775Z,29.16
2022-10-21T03:20:14.752Z,28.84
2022-10-21T03:21:14.740Z,28.78
2022-10-21T03:22:14.727Z,28.94
2022-10-21T03:23:14.719Z,28.84
2022-10-21T03:24:19.826Z,28.78
2022-10-21T03:25:15.729Z,28.78
2022-10-21T03:26:14.672Z,29.21
2022-10-21T03:27:14.664Z,29.21
2022-10-21T03:28:14.678Z,28.30
2022-10-21T03:29:14.662Z,28.78
2022-10-21T03:30:14.629Z,28.84
2022-10-21T03:31:14.610Z,28.78
2022-10-21T03:32:14.602Z,28.73
2022-10-21T03:33:14.605Z,28.73
2022-10-21T03:34:14.576Z,28.84
2022-10-21T03:35:14.585Z,28.78
2022-10-21T03:36:14.549Z,29.16
2022-10-21T03:37:14.538Z,28.84
2022-10-21T03:38:14.528Z,28.78
2022-10-21T03:39:14.502Z,29.16
2022-10-21T03:40:14.493Z,28.84
2022-10-21T03:41:14.480Z,28.78
2022-10-21T03:42:14.466Z,28.67
2022-10-21T03:43:14.453Z,28.73
2022-10-21T03:44:14.445Z,29.21
2022-10-21T03:45:14.457Z,28.84
2022-10-21T03:46:14.413Z,28.89
2022-10-21T03:47:14.402Z,28.67
2022-10-21T03:48:14.395Z,28.78
2022-10-21T03:49:19.946Z,28.89
2022-10-21T03:50:18.395Z,28.73
2022-10-21T03:51:15.389Z,28.78
2022-10-21T03:52:14.345Z,28.78
2022-10-21T03:53:30.801Z,28.78
2022-10-21T03:54:15.374Z,28.73
2022-10-21T03:55:14.299Z,29.11
2022-10-21T03:56:14.284Z,28.73
2022-10-21T03:57:14.274Z,29.21
2022-10-21T03:58:14.260Z,29.21
2022-10-21T03:59:14.244Z,28.73
2022-10-21T04:00:14.240Z,28.84
2022-10-21T04:01:14.353Z,28.78
2022-10-21T04:02:14.206Z,28.78
2022-10-21T04:03:14.194Z,28.84
2022-10-21T04:04:14.183Z,28.73
2022-10-21T04:05:14.172Z,29.11
2022-10-21T04:06:14.159Z,28.84
2022-10-21T04:07:14.145Z,28.78
2022-10-21T04:08:14.132Z,28.89
2022-10-21T04:09:14.199Z,29.21
2022-10-21T04:10:14.104Z,29.16
2022-10-21T04:11:14.090Z,28.84
2022-10-21T04:12:14.081Z,28.78
2022-10-21T04:13:14.064Z,28.78
2022-10-21T04:14:15.452Z,28.78
2022-10-21T04:15:14.041Z,28.84
2022-10-21T04:16:14.024Z,28.78
2022-10-21T04:17:14.040Z,29.11
2022-10-21T04:18:13.995Z,29.21
2022-10-21T04:19:13.984Z,28.73
2022-10-21T04:20:13.972Z,28.78
2022-10-21T04:21:14.088Z,28.78
2022-10-21T04:22:13.954Z,28.89
2022-10-21T04:23:13.932Z,28.84
2022-10-21T04:24:13.928Z,28.78
2022-10-21T04:25:13.907Z,29.21
2022-10-21T04:26:13.901Z,28.73
2022-10-21T04:27:13.875Z,28.78
2022-10-21T04:28:13.869Z,28.78
2022-10-21T04:29:13.864Z,27.86
2022-10-21T04:30:13.840Z,29.16
2022-10-21T04:31:13.828Z,28.73
2022-10-21T04:32:13.825Z,29.59
2022-10-21T04:33:13.845Z,29.27
2022-10-21T04:34:13.788Z,28.84
2022-10-21T04:35:13.780Z,29.11
2022-10-21T04:36:13.771Z,29.16
2022-10-21T04:37:13.754Z,28.84
2022-10-21T04:38:13.738Z,28.78
2022-10-21T04:39:13.737Z,29.27
2022-10-21T04:40:13.715Z,28.78
2022-10-21T04:41:13.708Z,28.78
2022-10-21T04:42:13.687Z,29.21
2022-10-21T04:43:13.678Z,28.84
2022-10-21T04:44:13.656Z,29.16
2022-10-21T04:45:13.650Z,28.67
2022-10-21T04:46:13.633Z,28.78
2022-10-21T04:47:13.621Z,28.84
2022-10-21T04:48:13.612Z,28.78
2022-10-21T04:49:13.614Z,28.78
2022-10-21T04:50:13.584Z,29.27
2022-10-21T04:51:13.566Z,28.89
2022-10-21T04:52:13.557Z,28.78
2022-10-21T04:53:13.544Z,28.78
2022-10-21T04:54:13.544Z,28.84
2022-10-21T04:55:13.518Z,29.16
2022-10-21T04:56:13.503Z,29.16
2022-10-21T04:57:13.495Z,28.84
2022-10-21T04:58:14.242Z,28.84
2022-10-21T04:59:13.467Z,28.78
2022-10-21T05:00:13.472Z,29.21
2022-10-21T05:01:13.569Z,29.00
2022-10-21T05:02:13.427Z,28.78
2022-10-21T05:03:13.413Z,29.16
2022-10-21T05:04:13.401Z,29.16
2022-10-21T05:05:13.412Z,28.84
2022-10-21T05:06:13.375Z,28.78
2022-10-21T05:07:13.370Z,28.78
2022-10-21T05:08:13.350Z,28.84
2022-10-21T05:09:13.438Z,28.67
2022-10-21T05:10:13.326Z,28.73
2022-10-21T05:11:13.311Z,28.73
2022-10-21T05:12:13.295Z,28.89
2022-10-21T05:13:13.305Z,28.84
2022-10-21T05:14:13.300Z,28.89
2022-10-21T05:15:13.287Z,28.78
2022-10-21T05:16:13.264Z,28.78
2022-10-21T05:17:13.276Z,28.84
2022-10-21T05:18:13.221Z,29.11
2022-10-21T05:19:13.210Z,28.73
2022-10-21T05:20:13.192Z,28.84
2022-10-21T05:21:13.279Z,29.27
2022-10-21T05:22:13.172Z,28.78
2022-10-21T05:23:13.153Z,28.84
2022-10-21T05:24:13.144Z,28.78
2022-10-21T05:25:13.127Z,28.78
2022-10-21T05:26:13.117Z,28.67
2022-10-21T05:27:13.111Z,28.78
2022-10-21T05:28:13.086Z,28.73
2022-10-21T05:29:13.077Z,28.73
2022-10-21T05:30:13.068Z,28.84
2022-10-21T05:31:13.050Z,28.19
2022-10-21T05:32:13.035Z,28.67
2022-10-21T05:33:13.028Z,28.78
2022-10-21T05:34:13.015Z,28.84
2022-10-21T05:35:12.993Z,28.94
2022-10-21T05:36:12.981Z,28.67
2022-10-21T05:37:13.003Z,28.78
2022-10-21T05:38:12.959Z,28.73
2022-10-21T05:39:12.957Z,29.21
2022-10-21T05:40:12.931Z,28.84
2022-10-21T05:41:12.916Z,28.89
2022-10-21T05:42:12.919Z,28.62
2022-10-21T05:43:12.890Z,28.84
2022-10-21T05:44:12.881Z,28.84
2022-10-21T05:45:12.868Z,28.62
2022-10-21T05:46:12.852Z,28.73
2022-10-21T05:47:12.836Z,28.84
2022-10-21T05:48:17.754Z,28.78
2022-10-21T05:49:12.820Z,28.84
2022-10-21T05:50:12.804Z,29.21
2022-10-21T05:51:12.790Z,28.78
2022-10-21T05:52:12.778Z,28.78
2022-10-21T05:53:12.788Z,28.84
2022-10-21T05:54:12.751Z,28.84
2022-10-21T05:55:12.746Z,29.16
2022-10-21T05:56:12.727Z,28.89
2022-10-21T05:57:12.714Z,28.84
2022-10-21T05:58:12.696Z,28.73
2022-10-21T05:59:12.682Z,28.84
2022-10-21T06:00:12.672Z,28.78
2022-10-21T06:01:12.667Z,28.19
2022-10-21T06:02:12.645Z,28.73
2022-10-21T06:03:12.633Z,28.78
2022-10-21T06:04:12.623Z,28.84
2022-10-21T06:05:12.612Z,28.73
2022-10-21T06:06:12.594Z,29.27
2022-10-21T06:07:12.589Z,28.89
2022-10-21T06:08:12.562Z,28.78
2022-10-21T06:09:12.629Z,29.21
2022-10-21T06:10:12.541Z,28.24
2022-10-21T06:11:12.528Z,29.16
2022-10-21T06:12:12.523Z,28.73
2022-10-21T06:13:12.505Z,28.73
2022-10-21T06:14:12.487Z,29.16
2022-10-21T06:15:12.474Z,29.16
2022-10-21T06:16:12.461Z,28.84
2022-10-21T06:17:12.460Z,28.78
2022-10-21T06:18:12.435Z,28.84
2022-10-21T06:19:12.423Z,28.84
2022-10-21T06:20:12.411Z,28.78
2022-10-21T06:21:12.394Z,28.84
2022-10-21T06:22:12.384Z,28.84
2022-10-21T06:23:12.372Z,28.84
2022-10-21T06:24:12.357Z,28.73
2022-10-21T06:25:12.440Z,28.24
2022-10-21T06:26:12.339Z,28.13
2022-10-21T06:27:12.322Z,28.24
2022-10-21T06:28:12.308Z,28.78
2022-10-21T06:29:12.306Z,28.84
2022-10-21T06:30:12.282Z,28.84
2022-10-21T06:31:12.267Z,29.54
2022-10-21T06:32:12.255Z,28.73
2022-10-21T06:33:12.254Z,28.84
2022-10-21T06:34:12.292Z,28.84
2022-10-21T06:35:12.216Z,28.78
2022-10-21T06:36:12.206Z,28.78
2022-10-21T06:37:12.190Z,28.67
2022-10-21T06:38:12.176Z,28.78
2022-10-21T06:39:12.162Z,28.78
2022-10-21T06:40:12.171Z,28.84
2022-10-21T06:41:13.414Z,28.84
2022-10-21T06:42:12.123Z,28.24
2022-10-21T06:43:12.131Z,28.78
2022-10-21T06:44:12.096Z,29.21
2022-10-21T06:45:12.086Z,28.84
2022-10-21T06:46:12.070Z,28.84
2022-10-21T06:47:12.060Z,28.89
2022-10-21T06:48:12.049Z,28.73
2022-10-21T06:49:12.032Z,29.16
2022-10-21T06:50:12.017Z,28.84
2022-10-21T06:51:12.009Z,28.73
2022-10-21T06:52:12.045Z,28.78
2022-10-21T06:53:11.986Z,28.78
2022-10-21T06:54:11.968Z,28.84
2022-10-21T06:55:11.957Z,28.78
2022-10-21T06:56:11.942Z,28.84
2022-10-21T06:57:11.958Z,28.84
2022-10-21T06:58:11.920Z,29.11
2022-10-21T06:59:11.908Z,28.73
2022-10-21T07:00:11.888Z,28.73
2022-10-21T07:01:27.309Z,28.84
2022-10-21T07:02:12.888Z,28.78
2022-10-21T07:03:11.855Z,28.78
2022-10-21T07:04:11.840Z,28.73
2022-10-21T07:05:11.836Z,28.84
2022-10-21T07:06:11.822Z,28.67
2022-10-21T07:07:11.797Z,28.78
2022-10-21T07:08:12.778Z,28.73
2022-10-21T07:09:11.839Z,28.78
2022-10-21T07:10:11.773Z,28.78
2022-10-21T07:11:11.750Z,29.21
2022-10-21T07:12:11.754Z,28.73
2022-10-21T07:13:11.747Z,28.78
2022-10-21T07:14:11.709Z,28.78
2022-10-21T07:15:11.698Z,28.89
2022-10-21T07:16:11.683Z,28.84
2022-10-21T07:17:11.667Z,28.78
2022-10-21T07:18:11.656Z,29.16
2022-10-21T07:19:11.641Z,28.78
2022-10-21T07:20:11.630Z,28.84
2022-10-21T07:21:11.616Z,29.16
2022-10-21T07:22:11.605Z,29.21
2022-10-21T07:23:11.591Z,28.84
2022-10-21T07:24:11.577Z,28.78
2022-10-21T07:25:11.564Z,29.16
2022-10-21T07:26:11.554Z,28.78
2022-10-21T07:27:11.537Z,28.73
2022-10-21T07:28:11.526Z,28.89
2022-10-21T07:29:11.541Z,28.84
2022-10-21T07:30:11.494Z,28.89
2022-10-21T07:31:11.483Z,29.21
2022-10-21T07:32:11.469Z,28.84
2022-10-21T07:33:11.461Z,28.84
2022-10-21T07:34:11.443Z,28.73
2022-10-21T07:35:11.433Z,28.84
2022-10-21T07:36:11.422Z,28.73
2022-10-21T07:37:11.410Z,28.73
2022-10-21T07:38:11.397Z,28.89
2022-10-21T07:39:11.383Z,28.89
2022-10-21T07:40:11.368Z,28.78
2022-10-21T07:41:11.369Z,27.86
2022-10-21T07:42:11.339Z,29.11
2022-10-21T07:43:11.390Z,28.94
2022-10-21T07:44:11.723Z,29.21
2022-10-21T07:45:11.332Z,28.89
2022-10-21T07:46:11.290Z,28.84
2022-10-21T07:47:11.275Z,28.78
2022-10-21T07:48:11.263Z,28.73
2022-10-21T07:49:11.270Z,28.78
2022-10-21T07:50:11.238Z,29.16
2022-10-21T07:51:11.221Z,28.78
2022-10-21T07:52:11.250Z,29.16
2022-10-21T07:53:13.037Z,28.67
2022-10-21T07:54:11.187Z,29.16
2022-10-21T07:55:11.179Z,28.84
2022-10-21T07:56:11.158Z,29.16
2022-10-21T07:57:11.145Z,28.89
2022-10-21T07:58:11.136Z,28.78
2022-10-21T07:59:13.131Z,28.19
2022-10-21T08:00:11.107Z,28.84
2022-10-21T08:01:11.236Z,28.78
2022-10-21T08:02:11.082Z,28.78
2022-10-21T08:03:11.086Z,28.73
2022-10-21T08:04:11.062Z,29.32
2022-10-21T08:05:11.041Z,29.21
2022-10-21T08:06:11.040Z,28.73
2022-10-21T08:07:13.213Z,28.73
2022-10-21T08:08:11.013Z,28.73
2022-10-21T08:09:11.096Z,28.84
2022-10-21T08:10:10.978Z,28.73
2022-10-21T08:11:10.967Z,28.78
2022-10-21T08:12:14.415Z,28.78
2022-10-21T08:13:10.936Z,29.21
2022-10-21T08:14:10.925Z,28.73
2022-10-21T08:15:10.914Z,28.78
2022-10-21T08:16:10.900Z,28.89
2022-10-21T08:17:10.913Z,28.73
2022-10-21T08:18:10.867Z,29.21
2022-10-21T08:19:10.863Z,29.21
2022-10-21T08:20:10.850Z,29.21
2022-10-21T08:21:10.831Z,28.78
2022-10-21T08:22:10.820Z,29.16
2022-10-21T08:23:10.819Z,28.73
2022-10-21T08:24:10.796Z,28.78
2022-10-21T08:25:10.782Z,29.11
2022-10-21T08:26:10.767Z,28.67
2022-10-21T08:27:10.756Z,28.78
2022-10-21T08:28:10.742Z,28.13
2022-10-21T08:29:10.744Z,28.78
2022-10-21T08:30:10.730Z,28.78
2022-10-21T08:31:10.700Z,28.78
2022-10-21T08:32:10.696Z,28.78
2022-10-21T08:33:10.703Z,29.21
2022-10-21T08:34:10.672Z,28.84
2022-10-21T08:35:10.655Z,28.84
2022-10-21T08:36:10.637Z,28.94
2022-10-21T08:37:10.625Z,29.11
2022-10-21T08:38:10.636Z,28.78
2022-10-21T08:39:10.608Z,28.73
2022-10-21T08:40:10.588Z,28.89
2022-10-21T08:41:10.573Z,28.73
2022-10-21T08:42:10.563Z,28.30
2022-10-21T08:43:10.550Z,28.78
2022-10-21T08:44:10.536Z,28.73
2022-10-21T08:45:10.522Z,28.19
2022-10-21T08:46:10.503Z,28.84
2022-10-21T08:47:10.500Z,28.73
2022-10-21T08:48:10.478Z,28.78
2022-10-21T08:49:10.500Z,28.84
2022-10-21T08:50:10.456Z,29.27
2022-10-21T08:51:10.439Z,29.16
2022-10-21T08:52:10.426Z,29.16
2022-10-21T08:53:10.415Z,28.78
2022-10-21T08:54:10.413Z,28.78
2022-10-21T08:55:10.390Z,28.78
2022-10-21T08:56:10.450Z,29.21
2022-10-21T08:57:10.365Z,28.84
2022-10-21T08:58:13.883Z,28.78
2022-10-21T08:59:10.339Z,28.89
2022-10-21T09:00:10.324Z,28.67
2022-10-21T09:01:10.312Z,28.78
2022-10-21T09:02:10.299Z,28.84
2022-10-21T09:03:10.342Z,28.73
2022-10-21T09:04:10.269Z,28.89
2022-10-21T09:05:10.304Z,29.21
2022-10-21T09:06:10.249Z,29.16
2022-10-21T09:07:10.240Z,28.78
2022-10-21T09:08:10.229Z,28.78
2022-10-21T09:09:10.283Z,29.16
2022-10-21T09:10:10.218Z,28.78
2022-10-21T09:11:10.180Z,28.84
2022-10-21T09:12:10.176Z,29.27
2022-10-21T09:13:10.154Z,28.78
2022-10-21T09:14:10.146Z,29.27
2022-10-21T09:15:11.478Z,28.73
2022-10-21T09:16:10.112Z,28.30
2022-10-21T09:17:10.104Z,29.16
2022-10-21T09:18:10.085Z,28.78
2022-10-21T09:19:10.084Z,28.78
2022-10-21T09:20:10.058Z,28.13
2022-10-21T09:21:10.074Z,28.78
2022-10-21T09:22:33.796Z,28.89
2022-10-21T09:23:11.061Z,29.16
2022-10-21T09:24:10.010Z,29.27
2022-10-21T09:25:09.995Z,29.21
2022-10-21T09:26:09.987Z,28.84
2022-10-21T09:27:09.970Z,29.21
2022-10-21T09:28:09.961Z,28.78
2022-10-21T09:29:09.949Z,28.78
2022-10-21T09:30:09.933Z,28.73
2022-10-21T09:31:09.922Z,29.16
2022-10-21T09:32:09.908Z,29.48
2022-10-21T09:33:09.893Z,28.24
2022-10-21T09:34:09.892Z,29.21
2022-10-21T09:35:09.868Z,28.89
2022-10-21T09:36:09.856Z,28.84
2022-10-21T09:37:09.869Z,28.89
2022-10-21T09:38:09.830Z,28.78
2022-10-21T09:39:09.810Z,28.89
2022-10-21T09:40:09.800Z,28.84
2022-10-21T09:41:09.831Z,28.89
2022-10-21T09:42:13.412Z,28.73
2022-10-21T09:43:10.799Z,29.21
2022-10-21T09:44:09.746Z,29.21
2022-10-21T09:45:09.732Z,28.78
2022-10-21T09:46:09.721Z,29.21
2022-10-21T09:47:09.710Z,28.84
2022-10-21T09:48:09.695Z,28.73
2022-10-21T09:50:09.672Z,28.78
2022-10-21T09:51:09.656Z,28.73
2022-10-21T09:52:09.653Z,28.84
2022-10-21T09:53:09.659Z,28.78
2022-10-21T09:54:09.621Z,29.21
2022-10-21T09:55:09.604Z,28.78
2022-10-21T09:56:09.593Z,29.16
2022-10-21T09:57:09.582Z,28.73
2022-10-21T09:58:09.569Z,28.78
2022-10-21T09:59:09.555Z,28.84
2022-10-21T10:00:12.716Z,28.84
2022-10-21T10:01:09.533Z,29.59
2022-10-21T10:02:09.593Z,28.84
2022-10-21T10:03:09.499Z,29.21
2022-10-21T10:04:09.486Z,28.78
2022-10-21T10:05:09.473Z,29.16
2022-10-21T10:06:09.465Z,29.54
2022-10-21T10:07:09.456Z,29.27
2022-10-21T10:08:09.446Z,28.78
2022-10-21T10:09:09.462Z,28.78
2022-10-21T10:10:09.414Z,29.21
2022-10-21T10:11:09.400Z,29.21
2022-10-21T10:12:09.383Z,28.73
2022-10-21T10:13:09.371Z,28.73
2022-10-21T10:14:09.379Z,29.59
2022-10-21T10:15:09.357Z,29.16
2022-10-21T10:16:09.334Z,29.16
2022-10-21T10:17:09.320Z,28.78
2022-10-21T10:18:09.310Z,28.78
2022-10-21T10:19:09.291Z,29.21
2022-10-21T10:20:09.281Z,29.21
2022-10-21T10:21:09.260Z,29.21
2022-10-21T10:22:10.475Z,28.73
2022-10-21T10:23:09.238Z,29.16
2022-10-21T10:24:09.224Z,28.78
2022-10-21T10:25:09.236Z,29.11
2022-10-21T10:26:09.199Z,28.78
2022-10-21T10:27:09.199Z,29.21
2022-10-21T10:28:09.184Z,28.62
2022-10-21T10:29:09.168Z,28.89
2022-10-21T10:30:09.155Z,29.54
2022-10-21T10:31:09.139Z,29.11
2022-10-21T10:32:09.127Z,29.16
2022-10-21T10:33:09.115Z,29.16
2022-10-21T10:34:09.104Z,29.21
2022-10-21T10:35:09.084Z,29.16
2022-10-21T10:36:09.759Z,29.16
2022-10-21T10:37:09.063Z,28.78
2022-10-21T10:38:09.050Z,30.13
2022-10-21T10:39:09.041Z,29.16
2022-10-21T10:40:09.021Z,28.84
2022-10-21T10:41:09.129Z,29.16
2022-10-21T10:42:09.012Z,29.16
2022-10-21T10:43:08.987Z,29.11
2022-10-21T10:44:08.970Z,29.21
2022-10-21T10:45:08.956Z,29.16
2022-10-21T10:46:08.949Z,29.11
2022-10-21T10:47:08.943Z,29.16
2022-10-21T10:48:08.919Z,29.54
2022-10-21T10:49:08.902Z,29.11
2022-10-21T10:50:08.895Z,29.16
2022-10-21T10:51:08.881Z,29.16
2022-10-21T10:52:08.867Z,29.27
2022-10-21T10:53:08.852Z,29.21
2022-10-21T10:54:08.840Z,28.73
2022-10-21T10:55:08.827Z,29.27
2022-10-21T10:56:08.816Z,30.13
2022-10-21T10:57:08.921Z,29.54
2022-10-21T10:58:12.677Z,29.75
2022-10-21T10:59:08.778Z,29.54
2022-10-21T11:00:08.771Z,29.27
2022-10-21T11:01:08.855Z,29.16
2022-10-21T11:02:08.744Z,28.84
2022-10-21T11:03:08.726Z,29.16
2022-10-21T11:04:08.705Z,28.78
2022-10-21T11:05:08.713Z,29.27
2022-10-21T11:06:08.756Z,29.59
2022-10-21T11:07:08.674Z,29.59
2022-10-21T11:08:08.676Z,29.21
2022-10-21T11:09:08.723Z,29.59
2022-10-21T11:10:08.642Z,29.16
2022-10-21T11:11:08.625Z,29.05
2022-10-21T11:12:08.614Z,28.19
2022-10-21T11:13:08.706Z,29.16
2022-10-21T11:14:08.583Z,30.13
2022-10-21T11:15:08.569Z,30.08
2022-10-21T11:16:08.562Z,29.16
2022-10-21T11:17:08.542Z,30.13
2022-10-21T11:18:24.246Z,30.24
2022-10-21T11:19:09.557Z,29.54
2022-10-21T11:20:08.505Z,29.11
2022-10-21T11:21:08.491Z,29.16
2022-10-21T11:22:08.480Z,29.65
2022-10-21T11:23:08.474Z,29.21
2022-10-21T11:24:08.458Z,30.19
2022-10-21T11:25:08.437Z,29.65
2022-10-21T11:26:08.419Z,29.16
2022-10-21T11:27:08.421Z,29.59
2022-10-21T11:28:08.409Z,29.16
2022-10-21T11:29:08.508Z,29.59
2022-10-21T11:30:08.378Z,29.59
2022-10-21T11:31:08.363Z,30.13
2022-10-21T11:32:12.366Z,29.54
2022-10-21T11:33:08.333Z,28.19
2022-10-21T11:34:12.731Z,29.21
2022-10-21T11:35:08.307Z,30.13
2022-10-21T11:36:08.298Z,29.59
2022-10-21T11:37:08.288Z,30.24
2022-10-21T11:38:08.270Z,29.65
2022-10-21T11:39:08.256Z,30.02
2022-10-21T11:40:08.247Z,29.54
2022-10-21T11:41:08.335Z,29.59
2022-10-21T11:42:08.224Z,30.13
2022-10-21T11:43:08.217Z,29.16
2022-10-21T11:44:08.195Z,29.65
2022-10-21T11:45:08.317Z,29.21
2022-10-21T11:46:08.171Z,30.24
2022-10-21T11:47:08.153Z,29.59
2022-10-21T11:48:08.146Z,29.54
2022-10-21T11:49:08.137Z,29.65
2022-10-21T11:50:08.277Z,29.21
2022-10-21T11:51:10.423Z,30.19
2022-10-21T11:52:08.096Z,30.13
2022-10-21T11:53:08.083Z,29.59
2022-10-21T11:54:08.071Z,30.13
2022-10-21T11:55:10.350Z,30.19
2022-10-21T11:56:08.039Z,30.24
2022-10-21T11:57:08.027Z,30.24
2022-10-21T11:58:08.017Z,29.59
2022-10-21T11:59:08.005Z,30.24
2022-10-21T12:00:08.038Z,29.59
2022-10-21T12:01:08.093Z,30.13
2022-10-21T12:02:08.067Z,30.13
2022-10-21T12:03:08.073Z,30.13
2022-10-21T12:04:07.942Z,31.10
2022-10-21T12:05:07.922Z,30.08
2022-10-21T12:06:07.906Z,29.59
2022-10-21T12:07:11.203Z,30.13
2022-10-21T12:08:07.889Z,29.59
2022-10-21T12:09:07.872Z,30.13
2022-10-21T12:10:07.942Z,30.13
2022-10-21T12:11:07.851Z,31.16
2022-10-21T12:12:07.836Z,29.59
2022-10-21T12:13:07.819Z,29.54
2022-10-21T12:14:07.812Z,31.21
2022-10-21T12:15:07.794Z,31.21
2022-10-21T12:16:07.783Z,30.08
2022-10-21T12:17:07.897Z,29.59
2022-10-21T12:18:07.768Z,30.35
2022-10-21T12:19:07.746Z,31.16
2022-10-21T12:20:07.876Z,30.08
2022-10-21T12:21:07.734Z,30.24
2022-10-21T12:22:07.706Z,30.19
2022-10-21T12:23:07.697Z,29.54
2022-10-21T12:24:07.687Z,31.10
2022-10-21T12:25:07.670Z,30.19
2022-10-21T12:26:07.656Z,29.59
2022-10-21T12:27:07.636Z,31.16
2022-10-21T12:28:07.631Z,31.10
2022-10-21T12:29:07.612Z,31.27
2022-10-21T12:30:07.716Z,31.21
2022-10-21T12:31:07.597Z,31.21
2022-10-21T12:32:07.577Z,31.27
2022-10-21T12:33:07.701Z,31.27
2022-10-21T12:34:07.574Z,30.19
2022-10-21T12:35:07.545Z,30.13
2022-10-21T12:36:07.531Z,31.16
2022-10-21T12:37:07.514Z,30.13
2022-10-21T12:38:07.507Z,32.40
2022-10-21T12:39:07.492Z,30.13
2022-10-21T12:40:07.480Z,31.16
2022-10-21T12:41:08.069Z,31.16
2022-10-21T12:42:07.465Z,31.27
2022-10-21T12:43:07.442Z,31.21
2022-10-21T12:44:07.423Z,31.10
2022-10-21T12:45:07.420Z,31.21
2022-10-21T12:46:07.399Z,31.16
2022-10-21T12:47:07.385Z,31.16
2022-10-21T12:48:07.406Z,31.21
2022-10-21T12:49:07.387Z,31.16
2022-10-21T12:50:07.349Z,31.16
2022-10-21T12:51:07.335Z,31.10
2022-10-21T12:52:07.325Z,33.37
2022-10-21T12:53:07.321Z,31.21